Time;durP1;ratioP1;P1;durP2;ratioP2;P2;SDS_P1;SDS_P2;PMS_P1;PMS_P2;Temp;Humidity;BMP_temperature;BMP_pressure;BME280_temperature;BME280_humidity;BME280_pressure;Samples;Min_cycle;Max_cycle;Signal;HPM_P1;HPM_P2
2024/04/05 00:00:21;;;;;;;22.80;21.70;;;20.30;83.50;;;;;;5093748;28;20196;-65
2024/04/05 00:02:47;;;;;;;21.23;20.43;;;20.30;83.60;;;;;;5093973;28;20465;-65
2024/04/05 00:05:13;;;;;;;21.53;20.53;;;20.30;83.70;;;;;;5094218;28;20687;-65
2024/04/05 00:07:40;;;;;;;22.03;21.13;;;20.30;83.80;;;;;;5094003;28;20439;-65
2024/04/05 00:10:07;;;;;;;20.70;19.90;;;20.30;83.90;;;;;;5093565;28;20211;-65
2024/04/05 00:12:33;;;;;;;21.23;20.20;;;20.30;83.90;;;;;;5093972;28;20885;-65
2024/04/05 00:15:01;;;;;;;20.80;19.90;;;20.30;83.90;;;;;;5094029;28;20450;-65
2024/04/05 00:17:29;;;;;;;21.57;20.63;;;20.30;83.80;;;;;;5093831;28;20443;-64
2024/04/05 00:19:55;;;;;;;20.83;19.97;;;20.30;83.90;;;;;;5093506;28;20928;-65
2024/04/05 00:22:24;;;;;;;21.10;20.20;;;20.30;83.90;;;;;;5093827;28;20446;-65
2024/04/05 00:24:52;;;;;;;21.73;20.53;;;20.30;83.90;;;;;;5085751;28;20438;-65
2024/04/05 00:27:19;;;;;;;21.13;20.27;;;20.30;83.90;;;;;;5093666;28;20998;-65
2024/04/05 00:29:46;;;;;;;21.37;20.47;;;20.30;83.90;;;;;;5093223;28;20815;-65
2024/04/05 00:32:14;;;;;;;22.53;21.60;;;20.30;83.90;;;;;;5093758;28;20557;-65
2024/04/05 00:34:40;;;;;;;22.10;21.20;;;20.30;83.70;;;;;;5093315;28;20531;-65
2024/04/05 00:37:08;;;;;;;21.70;20.67;;;20.30;83.80;;;;;;5093810;28;20925;-65
2024/04/05 00:39:33;;;;;;;21.03;20.23;;;20.30;84.00;;;;;;5086794;28;20615;-65
2024/04/05 00:42:00;;;;;;;21.00;20.20;;;20.20;83.80;;;;;;5093385;28;20442;-65
2024/04/05 00:44:26;;;;;;;21.20;20.20;;;20.30;83.90;;;;;;5092952;28;20224;-65
2024/04/05 00:46:53;;;;;;;20.60;19.70;;;20.30;84.00;;;;;;5093336;28;20922;-65
2024/04/05 00:49:20;;;;;;;21.23;20.33;;;20.30;84.00;;;;;;5093259;28;20204;-65
2024/04/05 00:51:47;;;;;;;21.03;20.13;;;20.30;84.00;;;;;;5093194;28;20549;-65
2024/04/05 00:54:13;;;;;;;21.27;20.37;;;20.20;83.70;;;;;;5093125;28;20466;-65
2024/04/05 00:56:40;;;;;;;21.60;20.80;;;20.30;84.00;;;;;;5093144;28;20446;-65
2024/04/05 00:59:09;;;;;;;22.20;21.20;;;20.30;84.00;;;;;;5093222;28;20478;-65
2024/04/05 01:01:36;;;;;;;21.07;20.17;;;20.30;84.00;;;;;;5092973;28;20434;-65
2024/04/05 01:04:02;;;;;;;21.00;20.00;;;20.20;83.90;;;;;;5093003;28;20470;-65
2024/04/05 01:06:32;;;;;;;26.27;25.30;;;20.20;84.00;;;;;;5092699;28;20455;-65
2024/04/05 01:08:59;;;;;;;22.20;21.40;;;20.20;83.70;;;;;;5092946;28;20208;-65
2024/04/05 01:11:26;;;;;;;21.10;20.30;;;20.30;83.90;;;;;;5092414;28;20484;-65
2024/04/05 01:13:53;;;;;;;22.60;21.70;;;20.20;83.90;;;;;;5084393;28;20462;-65
2024/04/05 01:16:19;;;;;;;21.40;20.50;;;20.20;83.80;;;;;;5092837;28;20449;-65
2024/04/05 01:18:46;;;;;;;21.23;20.20;;;20.20;83.70;;;;;;5092589;28;20449;-65
2024/04/05 01:21:12;;;;;;;21.00;20.20;;;20.20;83.80;;;;;;5092461;28;20472;-65
2024/04/05 01:23:42;;;;;;;21.77;20.77;;;20.20;83.70;;;;;;5092342;28;20466;-65
2024/04/05 01:26:09;;;;;;;21.20;20.30;;;20.20;83.90;;;;;;5092610;28;20469;-65
2024/04/05 01:28:35;;;;;;;21.23;20.33;;;20.20;84.70;;;;;;5092726;28;20443;-65
2024/04/05 01:31:03;;;;;;;22.17;21.23;;;20.20;83.90;;;;;;5091949;28;20501;-65
2024/04/05 01:33:29;;;;;;;21.30;20.40;;;20.20;84.00;;;;;;5092262;28;20462;-65
2024/04/05 01:35:56;;;;;;;21.60;20.70;;;20.20;83.90;;;;;;5092562;28;20499;-65
2024/04/05 01:38:21;;;;;;;20.70;19.80;;;20.20;83.90;;;;;;5092379;28;20196;-65
2024/04/05 01:40:49;;;;;;;20.90;20.10;;;20.20;84.00;;;;;;5091747;28;20450;-65
2024/04/05 01:43:15;;;;;;;20.63;19.87;;;20.20;84.00;;;;;;5092315;28;20719;-65
2024/04/05 01:45:43;;;;;;;20.47;19.63;;;20.20;84.00;;;;;;5092217;28;20447;-65
2024/04/05 01:48:09;;;;;;;21.17;20.30;;;20.20;83.90;;;;;;5092138;28;20284;-65
2024/04/05 01:50:38;;;;;;;21.50;20.60;;;20.20;83.80;;;;;;5098316;28;20564;-65
2024/04/05 01:53:04;;;;;;;21.10;20.20;;;20.20;83.90;;;;;;5092065;28;20224;-65
2024/04/05 01:55:32;;;;;;;21.97;21.13;;;20.20;83.80;;;;;;5091561;28;20502;-65
2024/04/05 01:57:59;;;;;;;22.97;21.67;;;20.20;83.90;;;;;;5092158;28;20196;-65
2024/04/05 02:00:26;;;;;;;20.70;19.90;;;20.20;83.80;;;;;;5091618;28;20482;-65
2024/04/05 02:02:52;;;;;;;21.27;20.40;;;20.20;83.80;;;;;;5091661;28;20515;-65
2024/04/05 02:05:19;;;;;;;21.87;21.00;;;20.20;83.80;;;;;;5091794;28;20470;-65
2024/04/05 02:07:45;;;;;;;22.10;21.20;;;20.20;83.70;;;;;;5091893;28;20671;-65
2024/04/05 02:10:11;;;;;;;21.77;20.70;;;20.20;83.70;;;;;;5091353;28;20442;-65
2024/04/05 02:12:38;;;;;;;22.13;21.00;;;20.20;83.80;;;;;;5091577;28;20687;-65
2024/04/05 02:15:06;;;;;;;22.73;21.63;;;20.20;83.80;;;;;;5091762;28;20453;-65
2024/04/05 02:17:32;;;;;;;21.10;20.30;;;20.20;83.90;;;;;;5091608;28;20446;-65
2024/04/05 02:19:59;;;;;;;21.23;20.43;;;20.20;84.60;;;;;;5091537;28;20450;-65
2024/04/05 02:22:26;;;;;;;21.70;20.70;;;20.20;83.90;;;;;;5091706;28;20445;-66
2024/04/05 02:24:53;;;;;;;21.43;20.63;;;20.20;83.90;;;;;;5091554;28;20495;-65
2024/04/05 02:27:19;;;;;;;21.70;20.80;;;20.20;83.90;;;;;;5091759;28;20945;-65
2024/04/05 02:29:45;;;;;;;21.70;20.90;;;20.20;83.80;;;;;;5091237;28;21009;-65
2024/04/05 02:32:13;;;;;;;22.27;21.37;;;20.20;83.70;;;;;;5091567;28;20482;-65
2024/04/05 02:34:40;;;;;;;22.60;20.90;;;20.20;83.70;;;;;;5091293;28;20813;-65
2024/04/05 02:37:06;;;;;;;21.53;20.73;;;20.20;83.70;;;;;;5091713;28;20446;-65
2024/04/05 02:39:33;;;;;;;22.23;21.30;;;20.20;83.80;;;;;;5090914;28;20446;-65
2024/04/05 02:41:58;;;;;;;22.03;20.70;;;20.20;83.90;;;;;;5091510;28;20204;-65
2024/04/05 02:44:25;;;;;;;21.90;21.10;;;20.20;83.80;;;;;;5091369;28;20462;-65
2024/04/05 02:46:51;;;;;;;21.67;20.77;;;20.20;83.80;;;;;;5091296;28;20235;-65
2024/04/05 02:49:20;;;;;;;22.27;21.47;;;20.20;83.70;;;;;;5090994;28;20481;-65
2024/04/05 02:51:46;;;;;;;22.93;22.03;;;20.20;83.90;;;;;;5091491;28;20466;-65
2024/04/05 02:54:13;;;;;;;21.30;20.40;;;20.20;84.00;;;;;;5091261;28;20557;-65
2024/04/05 02:56:38;;;;;;;21.27;20.47;;;20.10;83.90;;;;;;5091138;28;20307;-65
2024/04/05 02:59:05;;;;;;;22.07;21.27;;;20.20;83.80;;;;;;5091620;28;20474;-65
2024/04/05 03:01:31;;;;;;;21.43;20.63;;;20.20;83.90;;;;;;5091003;28;20296;-65
2024/04/05 03:03:58;;;;;;;24.23;23.13;;;20.20;83.70;;;;;;5091212;28;20494;-65
2024/04/05 03:06:25;;;;;;;22.50;21.60;;;20.20;83.70;;;;;;5091151;28;20211;-65
2024/04/05 03:08:52;;;;;;;22.87;21.97;;;20.10;83.60;;;;;;5094673;28;20478;-65
2024/04/05 03:11:18;;;;;;;21.80;21.00;;;20.20;83.80;;;;;;5094629;28;20531;-65
2024/04/05 03:13:45;;;;;;;22.53;21.63;;;20.10;83.70;;;;;;5094817;28;20833;-65
2024/04/05 03:16:11;;;;;;;22.03;21.13;;;20.20;83.80;;;;;;5094889;28;20208;-65
2024/04/05 03:18:39;;;;;;;23.27;22.27;;;20.20;83.70;;;;;;5094644;28;20465;-65
2024/04/05 03:21:05;;;;;;;23.00;22.10;;;20.20;83.70;;;;;;5094408;28;20567;-65
2024/04/05 03:23:33;;;;;;;22.77;21.87;;;20.20;83.60;;;;;;5094549;28;20980;-65
2024/04/05 03:25:59;;;;;;;22.07;21.17;;;20.20;83.70;;;;;;5078171;28;20200;-65
2024/04/05 03:28:26;;;;;;;22.80;21.90;;;20.20;83.50;;;;;;5094675;28;20949;-65
2024/04/05 03:30:52;;;;;;;22.40;21.50;;;20.10;83.50;;;;;;5093948;28;20487;-65
2024/04/05 03:33:18;;;;;;;22.33;21.43;;;20.10;83.50;;;;;;5094257;28;20469;-65
2024/04/05 03:35:45;;;;;;;22.27;21.37;;;20.20;83.60;;;;;;5094535;28;20235;-65
2024/04/05 03:38:11;;;;;;;22.40;21.50;;;20.20;83.60;;;;;;5094602;28;20450;-65
2024/04/05 03:40:39;;;;;;;23.27;21.90;;;20.10;83.40;;;;;;5093900;28;20559;-65
2024/04/05 03:43:06;;;;;;;22.10;21.20;;;20.10;83.30;;;;;;5094275;28;20553;-65
2024/04/05 03:45:32;;;;;;;22.60;21.60;;;20.10;83.30;;;;;;5094288;28;20446;-65
2024/04/05 03:47:59;;;;;;;22.70;21.70;;;20.10;83.30;;;;;;5085853;28;20466;-65
2024/04/05 03:50:25;;;;;;;22.77;21.77;;;20.10;83.20;;;;;;5093934;28;20449;-65
2024/04/05 03:52:53;;;;;;;24.60;23.70;;;20.10;83.10;;;;;;5093846;28;20501;-65
2024/04/05 03:55:20;;;;;;;26.20;25.17;;;20.10;82.90;;;;;;5094174;28;20442;-65
2024/04/05 03:57:52;;;;;;;22.40;21.43;;;20.10;82.80;;;;;;5094598;28;20453;-65
2024/04/05 04:00:18;;;;;;;24.77;23.07;;;20.10;82.80;;;;;;5093701;28;20445;-65
2024/04/05 04:02:45;;;;;;;23.47;22.57;;;20.10;83.30;;;;;;5106194;22;20480;-66
2024/04/05 04:05:11;;;;;;;24.70;23.60;;;20.10;82.40;;;;;;5065444;28;20443;-66
2024/04/05 04:07:37;;;;;;;23.00;22.00;;;20.10;82.50;;;;;;5064793;28;20443;-65
2024/04/05 04:10:04;;;;;;;24.70;23.60;;;20.10;82.50;;;;;;5061520;28;20201;-65
2024/04/05 04:12:31;;;;;;;24.07;22.97;;;20.10;82.50;;;;;;5053425;28;20468;-65
2024/04/05 04:14:58;;;;;;;23.70;22.80;;;20.10;82.50;;;;;;5053306;28;20440;-66
2024/04/05 04:17:25;;;;;;;22.90;21.90;;;20.10;82.60;;;;;;5053422;28;20535;-66
2024/04/05 04:19:52;;;;;;;23.93;22.83;;;20.10;82.60;;;;;;5052274;28;20441;-66
2024/04/05 04:22:19;;;;;;;23.83;22.83;;;20.10;82.60;;;;;;5053136;28;20526;-66
2024/04/05 04:24:44;;;;;;;23.83;22.80;;;20.10;82.50;;;;;;5053143;28;20444;-65
2024/04/05 04:27:12;;;;;;;23.50;22.50;;;20.10;82.50;;;;;;5053377;28;20440;-66
2024/04/05 04:29:39;;;;;;;23.83;22.73;;;20.10;82.70;;;;;;5052617;28;20194;-66
2024/04/05 04:32:07;;;;;;;25.03;23.93;;;20.10;82.60;;;;;;5061219;28;20499;-66
2024/04/05 04:34:34;;;;;;;24.67;23.57;;;20.10;82.40;;;;;;5061308;28;20515;-66
2024/04/05 04:37:00;;;;;;;23.97;22.80;;;20.20;82.20;;;;;;5064567;28;20439;-66
2024/04/05 04:39:26;;;;;;;24.37;22.97;;;20.20;82.20;;;;;;5057764;28;20444;-66
2024/04/05 04:41:54;;;;;;;24.33;23.23;;;20.20;81.80;;;;;;5063362;28;20919;-66
2024/04/05 04:44:21;;;;;;;23.40;22.50;;;20.20;81.50;;;;;;5064533;28;20197;-66
2024/04/05 04:46:47;;;;;;;23.13;22.10;;;20.20;80.90;;;;;;5062862;28;20443;-66
2024/04/05 04:49:14;;;;;;;24.93;23.77;;;20.30;81.60;;;;;;5060829;28;20807;-67
2024/04/05 04:51:41;;;;;;;26.33;24.60;;;20.30;83.50;;;;;;5061538;28;20479;-67
2024/04/05 04:54:07;;;;;;;28.17;25.57;;;20.30;88.40;;;;;;5064420;28;20519;-67
2024/04/05 04:56:34;;;;;;;28.47;25.77;;;20.30;91.00;;;;;;5065495;28;20439;-66
2024/04/05 04:58:59;;;;;;;27.87;25.53;;;20.40;89.70;;;;;;5063318;28;20204;-66
2024/04/05 05:01:26;;;;;;;27.23;25.20;;;20.40;90.90;;;;;;5054521;28;20434;-62
2024/04/05 05:03:52;;;;;;;25.60;23.03;;;20.40;92.40;;;;;;5062436;28;20225;-62
2024/04/05 05:06:20;;;;;;;33.97;26.97;;;20.40;92.00;;;;;;5064998;28;20443;-63
2024/04/05 05:08:46;;;;;;;28.03;25.57;;;20.40;91.50;;;;;;5060681;28;20464;-63
2024/04/05 05:11:13;;;;;;;26.20;24.20;;;20.40;91.50;;;;;;5061050;28;20525;-63
2024/04/05 05:13:38;;;;;;;26.60;24.30;;;20.40;91.40;;;;;;5061408;28;20228;-61
2024/04/05 05:16:05;;;;;;;26.10;24.23;;;20.40;91.00;;;;;;5065047;28;20439;-63
2024/04/05 05:18:31;;;;;;;24.80;22.63;;;20.40;90.80;;;;;;5064960;28;20568;-62
2024/04/05 05:20:59;;;;;;;25.40;23.60;;;20.40;90.50;;;;;;5062149;28;20440;-63
2024/04/05 05:23:26;;;;;;;25.33;23.80;;;20.40;90.30;;;;;;5061601;28;20217;-63
2024/04/05 05:25:52;;;;;;;27.57;24.70;;;20.50;90.20;;;;;;5063038;28;20468;-63
2024/04/05 05:28:18;;;;;;;24.50;23.03;;;20.50;90.00;;;;;;5064967;28;20454;-62
2024/04/05 05:30:45;;;;;;;25.20;23.40;;;20.50;89.50;;;;;;5062634;28;20443;-63
2024/04/05 05:33:10;;;;;;;25.83;24.00;;;20.50;89.00;;;;;;5061211;28;20693;-63
2024/04/05 05:35:37;;;;;;;25.20;23.47;;;20.50;88.60;;;;;;5061180;28;20442;-62
2024/04/05 05:38:03;;;;;;;24.40;22.80;;;20.50;88.30;;;;;;5064532;28;20208;-62
2024/04/05 05:40:31;;;;;;;25.80;23.90;;;20.50;87.70;;;;;;5064383;28;20439;-62
2024/04/05 05:42:57;;;;;;;25.50;24.20;;;20.50;87.40;;;;;;5062411;28;20459;-62
2024/04/05 05:45:24;;;;;;;24.40;23.00;;;20.50;86.90;;;;;;5061225;28;20493;-62
2024/04/05 05:47:53;;;;;;;24.93;23.33;;;20.60;86.70;;;;;;5062999;28;20205;-63
2024/04/05 05:50:20;;;;;;;25.90;24.03;;;20.60;86.40;;;;;;5064586;28;20459;-63
2024/04/05 05:52:46;;;;;;;24.83;22.80;;;20.60;86.00;;;;;;5064265;28;20482;-62
2024/04/05 05:55:13;;;;;;;25.73;23.83;;;20.50;85.60;;;;;;5062138;28;20804;-62
2024/04/05 05:57:40;;;;;;;23.50;22.37;;;20.60;85.40;;;;;;5052741;28;20198;-63
2024/04/05 06:00:09;;;;;;;24.33;22.87;;;20.60;85.10;;;;;;5052761;28;20459;-62
2024/04/05 06:02:36;;;;;;;26.07;24.63;;;20.60;84.80;;;;;;5053275;28;20993;-63
2024/04/05 06:05:04;;;;;;;24.97;23.87;;;20.60;84.60;;;;;;5053529;28;20467;-63
2024/04/05 06:07:30;;;;;;;26.13;24.20;;;20.60;84.20;;;;;;5061092;28;20807;-62
2024/04/05 06:09:57;;;;;;;26.10;24.43;;;20.60;83.90;;;;;;5062399;28;20563;-63
2024/04/05 06:12:24;;;;;;;26.73;24.67;;;20.60;83.70;;;;;;5063935;28;20479;-62
2024/04/05 06:14:54;;;;;;;24.87;23.47;;;20.60;83.50;;;;;;5062972;28;20439;-63
2024/04/05 06:17:20;;;;;;;25.50;23.90;;;20.60;83.20;;;;;;5060681;28;20464;-62
2024/04/05 06:19:47;;;;;;;27.43;25.23;;;20.60;83.10;;;;;;5060914;28;20446;-63
2024/04/05 06:22:13;;;;;;;25.67;24.37;;;20.60;82.80;;;;;;5064390;28;20431;-62
2024/04/05 06:24:40;;;;;;;24.50;23.20;;;20.60;82.60;;;;;;5064113;28;20535;-63
2024/04/05 06:27:07;;;;;;;25.77;24.17;;;20.60;82.40;;;;;;5061236;28;20206;-63
2024/04/05 06:29:33;;;;;;;25.73;24.33;;;20.60;82.20;;;;;;5060421;28;20883;-61
2024/04/05 06:32:01;;;;;;;24.37;23.23;;;20.60;82.00;;;;;;5063166;28;20487;-63
2024/04/05 06:34:27;;;;;;;24.77;23.27;;;20.60;81.90;;;;;;5064079;28;20950;-63
2024/04/05 06:36:53;;;;;;;25.50;24.00;;;20.60;81.70;;;;;;5062706;28;20807;-63
2024/04/05 06:39:20;;;;;;;26.97;25.67;;;20.60;81.50;;;;;;5060489;28;20436;-61
2024/04/05 06:41:45;;;;;;;23.80;22.80;;;20.60;81.40;;;;;;5061292;28;20577;-62
2024/04/05 06:44:14;;;;;;;25.10;23.80;;;20.60;81.30;;;;;;5067909;28;20459;-62
2024/04/05 06:46:40;;;;;;;24.50;23.40;;;20.60;81.10;;;;;;5067937;28;20668;-62
2024/04/05 06:49:08;;;;;;;26.13;24.63;;;20.60;81.00;;;;;;5064277;28;20464;-61
2024/04/05 06:51:34;;;;;;;25.60;24.20;;;20.60;80.90;;;;;;5064235;28;20588;-63
2024/04/05 06:54:00;;;;;;;25.20;24.00;;;20.60;80.70;;;;;;5067007;28;20463;-63
2024/04/05 06:56:27;;;;;;;26.27;24.93;;;20.60;80.60;;;;;;5067831;28;20688;-63
2024/04/05 06:58:54;;;;;;;26.47;25.17;;;20.60;80.50;;;;;;5066167;28;21020;-62
2024/04/05 07:01:19;;;;;;;26.30;24.93;;;20.60;80.40;;;;;;5064720;28;20440;-63
2024/04/05 07:03:47;;;;;;;26.40;24.93;;;20.60;80.20;;;;;;5065245;28;20467;-62
2024/04/05 07:06:15;;;;;;;25.27;24.10;;;20.60;80.10;;;;;;5068246;28;20197;-63
2024/04/05 07:08:41;;;;;;;27.40;26.13;;;20.60;80.00;;;;;;5067689;28;20451;-63
2024/04/05 07:11:09;;;;;;;26.27;25.00;;;20.60;79.90;;;;;;5063583;28;20479;-62
2024/04/05 07:13:36;;;;;;;25.50;24.17;;;20.60;79.80;;;;;;5055952;28;20485;-62
2024/04/05 07:16:03;;;;;;;25.17;23.90;;;20.70;79.80;;;;;;5055515;28;20927;-62
2024/04/05 07:18:30;;;;;;;24.40;23.20;;;20.70;79.70;;;;;;5064598;28;20475;-61
2024/04/05 07:20:56;;;;;;;25.87;24.37;;;20.70;79.60;;;;;;5066200;28;20874;-63
2024/04/05 07:23:24;;;;;;;24.70;23.47;;;20.60;79.40;;;;;;5067794;28;20451;-62
2024/04/05 07:25:51;;;;;;;24.87;23.77;;;20.70;79.40;;;;;;5066370;28;20250;-63
2024/04/05 07:28:18;;;;;;;24.97;23.77;;;20.70;79.30;;;;;;5064348;28;20443;-63
2024/04/05 07:30:43;;;;;;;23.90;22.70;;;20.70;79.20;;;;;;5064072;28;20450;-62
2024/04/05 07:33:10;;;;;;;24.67;23.50;;;20.70;79.10;;;;;;5063714;28;21054;-61
2024/04/05 07:35:36;;;;;;;25.73;24.63;;;20.70;78.90;;;;;;5063617;28;20557;-62
2024/04/05 07:38:02;;;;;;;24.63;23.40;;;20.70;78.80;;;;;;5065884;28;20444;-62
2024/04/05 07:40:34;;;;;;;25.30;24.10;;;20.70;78.70;;;;;;5066950;28;20582;-64
2024/04/05 07:43:01;;;;;;;25.87;24.27;;;20.70;78.60;;;;;;5064941;28;20460;-63
2024/04/05 07:45:27;;;;;;;24.20;23.00;;;20.70;78.50;;;;;;5063687;28;20628;-63
2024/04/05 07:47:54;;;;;;;24.30;23.27;;;20.70;78.40;;;;;;5064563;28;20440;-62
2024/04/05 07:50:21;;;;;;;25.30;24.00;;;20.70;78.40;;;;;;5066631;28;20443;-63
2024/04/05 07:52:53;;;;;;;24.47;23.27;;;20.70;78.20;;;;;;5066522;28;20485;-63
2024/04/05 07:55:18;;;;;;;25.90;24.50;;;20.70;78.10;;;;;;5063203;28;20452;-61
2024/04/05 07:57:47;;;;;;;24.70;23.50;;;20.70;78.10;;;;;;5055311;28;20444;-62
2024/04/05 08:00:14;;;;;;;24.40;23.20;;;20.70;78.00;;;;;;5055058;28;20198;-62
2024/04/05 08:02:45;;;;;;;24.63;23.47;;;20.70;77.90;;;;;;5055514;28;20478;-62
2024/04/05 08:05:11;;;;;;;24.23;23.03;;;20.70;77.80;;;;;;5055823;28;20447;-63
2024/04/05 08:07:37;;;;;;;25.27;24.17;;;20.70;77.70;;;;;;5063229;28;20436;-63
2024/04/05 08:10:03;;;;;;;24.60;23.50;;;20.70;77.70;;;;;;5064824;28;20695;-62
2024/04/05 08:12:30;;;;;;;25.63;24.37;;;20.70;77.60;;;;;;5065948;28;20537;-62
2024/04/05 08:14:57;;;;;;;25.20;24.00;;;20.70;77.50;;;;;;5064624;28;20451;-62
2024/04/05 08:17:24;;;;;;;24.90;23.80;;;20.70;77.40;;;;;;5062761;28;20444;-62
2024/04/05 08:19:50;;;;;;;25.33;24.23;;;20.70;77.40;;;;;;5062532;28;20828;-63
2024/04/05 08:22:17;;;;;;;26.10;24.70;;;20.70;77.30;;;;;;5066333;28;20454;-63
2024/04/05 08:24:43;;;;;;;25.80;24.70;;;20.70;77.10;;;;;;5065950;28;20235;-62
2024/04/05 08:27:10;;;;;;;25.90;24.60;;;20.70;77.10;;;;;;5062692;28;20864;-62
2024/04/05 08:29:37;;;;;;;24.87;23.80;;;20.70;77.00;;;;;;5061936;28;20436;-63
2024/04/05 08:32:06;;;;;;;24.97;23.83;;;20.70;77.00;;;;;;5064303;28;20890;-62
2024/04/05 08:34:32;;;;;;;25.57;24.30;;;20.60;76.80;;;;;;5065510;28;20458;-63
2024/04/05 08:36:59;;;;;;;25.27;24.07;;;20.70;76.90;;;;;;5064107;28;20443;-62
2024/04/05 08:39:25;;;;;;;25.70;24.60;;;20.70;76.80;;;;;;5061673;28;20198;-61
2024/04/05 08:41:52;;;;;;;25.17;24.17;;;20.70;76.70;;;;;;5062250;28;20447;-62
2024/04/05 08:44:17;;;;;;;24.17;23.00;;;20.70;76.60;;;;;;5065429;28;20224;-61
2024/04/05 08:46:44;;;;;;;25.60;24.60;;;20.70;76.60;;;;;;5065387;28;20442;-62
2024/04/05 08:49:13;;;;;;;24.47;23.47;;;20.70;76.60;;;;;;5061913;28;20224;-61
2024/04/05 08:51:40;;;;;;;24.33;23.33;;;20.70;76.60;;;;;;5061858;28;20932;-62
2024/04/05 08:54:07;;;;;;;25.10;24.00;;;20.70;76.50;;;;;;5064208;28;20464;-63
2024/04/05 08:56:35;;;;;;;24.97;23.67;;;20.70;76.50;;;;;;5064894;28;20446;-63
2024/04/05 08:59:03;;;;;;;24.63;23.63;;;20.70;76.40;;;;;;5063160;28;20454;-61
2024/04/05 09:01:29;;;;;;;25.27;24.07;;;20.70;76.30;;;;;;5061601;28;20456;-62
2024/04/05 09:03:55;;;;;;;25.47;24.20;;;20.70;76.30;;;;;;5062988;28;20460;-62
2024/04/05 09:06:25;;;;;;;24.50;23.50;;;20.80;76.40;;;;;;5065213;28;20459;-62
2024/04/05 09:08:52;;;;;;;25.47;24.47;;;20.70;76.20;;;;;;5064329;28;20215;-63
2024/04/05 09:11:22;;;;;;;25.50;24.40;;;20.70;76.20;;;;;;5060695;28;20440;-62
2024/04/05 09:13:55;;;;;;;25.07;23.97;;;20.70;76.10;;;;;;5061175;28;20507;-62
2024/04/05 09:16:23;;;;;;;24.47;23.37;;;20.80;76.20;;;;;;5053972;28;20447;-62
2024/04/05 09:18:49;;;;;;;24.10;23.20;;;20.80;76.10;;;;;;5061372;28;20889;-63
2024/04/05 09:21:17;;;;;;;24.67;23.67;;;20.80;76.00;;;;;;5053390;28;20940;-63
2024/04/05 09:23:49;;;;;;;24.63;23.63;;;20.80;76.00;;;;;;5061586;28;20452;-63
2024/04/05 09:26:24;;;;;;;25.20;24.00;;;20.80;75.90;;;;;;5061411;28;20493;-63
2024/04/05 09:28:58;;;;;;;24.30;23.40;;;20.80;75.80;;;;;;5061240;28;20444;-62
2024/04/05 09:31:25;;;;;;;25.30;24.03;;;20.80;76.50;;;;;;5064402;28;20505;-62
2024/04/05 09:33:51;;;;;;;24.13;22.93;;;20.80;75.70;;;;;;5064108;28;20570;-62
2024/04/05 09:36:23;;;;;;;24.83;23.83;;;20.80;75.70;;;;;;5060982;28;20432;-62
2024/04/05 09:38:51;;;;;;;24.50;23.60;;;20.80;75.70;;;;;;5060801;28;20497;-62
2024/04/05 09:41:17;;;;;;;24.10;23.13;;;20.80;75.60;;;;;;5052548;28;21001;-61
2024/04/05 09:43:44;;;;;;;24.20;23.30;;;20.80;75.60;;;;;;5052474;28;20449;-62
2024/04/05 09:46:14;;;;;;;24.77;23.77;;;20.80;75.60;;;;;;5052858;28;20447;-62
2024/04/05 09:48:40;;;;;;;23.33;22.30;;;20.80;75.50;;;;;;5052835;28;20441;-62
2024/04/05 09:51:15;;;;;;;24.20;23.30;;;20.80;75.40;;;;;;5052516;28;20446;-62
2024/04/05 09:53:45;;;;;;;24.10;23.10;;;20.80;75.30;;;;;;5052709;28;20252;-61
2024/04/05 09:56:18;;;;;;;23.30;22.30;;;20.80;75.30;;;;;;5052294;28;20468;-62
2024/04/05 09:58:46;;;;;;;25.20;24.10;;;20.80;75.30;;;;;;5052783;28;20452;-62
2024/04/05 10:01:13;;;;;;;25.00;24.10;;;20.80;75.20;;;;;;5052074;28;20444;-62
2024/04/05 10:03:39;;;;;;;24.40;23.50;;;20.80;75.20;;;;;;5051910;28;20460;-61
2024/04/05 10:06:13;;;;;;;24.10;23.20;;;20.80;75.20;;;;;;5051227;28;20947;-61
2024/04/05 10:08:39;;;;;;;24.13;23.23;;;20.80;75.10;;;;;;5051311;28;20463;-60
2024/04/05 10:11:11;;;;;;;23.80;22.90;;;20.80;75.00;;;;;;5050889;28;20440;-61
2024/04/05 10:13:38;;;;;;;23.63;22.73;;;20.80;75.00;;;;;;5051113;28;20589;-61
2024/04/05 10:16:05;;;;;;;25.27;24.33;;;20.80;75.00;;;;;;5051130;28;20944;-60
2024/04/05 10:18:34;;;;;;;25.80;24.80;;;20.80;75.00;;;;;;5050882;28;20815;-59
2024/04/05 10:21:02;;;;;;;26.80;25.60;;;20.80;74.90;;;;;;5050761;28;20935;-59
2024/04/05 10:23:29;;;;;;;24.90;23.90;;;20.80;74.90;;;;;;5059647;28;20722;-61
2024/04/05 10:25:56;;;;;;;26.20;25.30;;;20.80;74.80;;;;;;5059839;28;20444;-61
2024/04/05 10:28:22;;;;;;;25.00;24.00;;;20.80;74.80;;;;;;5063023;28;20500;-63
2024/04/05 10:30:50;;;;;;;24.87;23.80;;;20.80;74.80;;;;;;5062614;28;20442;-62
2024/04/05 10:33:17;;;;;;;25.97;24.97;;;20.80;74.70;;;;;;5062730;28;20937;-62
2024/04/05 10:35:44;;;;;;;27.03;26.03;;;20.80;74.60;;;;;;5062868;28;20446;-62
2024/04/05 10:38:10;;;;;;;25.57;24.57;;;20.80;74.60;;;;;;5060349;28;20478;-61
2024/04/05 10:40:37;;;;;;;25.53;24.63;;;20.80;74.60;;;;;;5059127;28;20472;-62
2024/04/05 10:43:07;;;;;;;25.73;24.83;;;20.80;74.50;;;;;;5060561;28;20225;-60
2024/04/05 10:45:34;;;;;;;25.63;24.73;;;20.80;74.50;;;;;;5062929;28;20519;-61
2024/04/05 10:48:01;;;;;;;25.60;24.70;;;20.80;74.50;;;;;;5061908;28;20934;-61
2024/04/05 10:50:28;;;;;;;26.83;25.90;;;20.80;74.50;;;;;;5058953;28;20883;-61
2024/04/05 10:52:53;;;;;;;25.50;24.60;;;20.80;74.50;;;;;;5059006;28;21143;-61
2024/04/05 10:55:20;;;;;;;25.93;25.03;;;20.80;74.40;;;;;;5051208;28;20444;-60
2024/04/05 10:57:46;;;;;;;23.50;22.60;;;20.80;74.40;;;;;;5059332;28;20205;-60
2024/04/05 11:00:14;;;;;;;26.73;25.80;;;20.80;74.30;;;;;;5061220;28;20450;-60
2024/04/05 11:02:41;;;;;;;25.40;24.40;;;20.80;74.30;;;;;;5062454;28;20541;-60
2024/04/05 11:05:13;;;;;;;26.03;24.93;;;20.90;74.30;;;;;;5060750;28;20483;-60
2024/04/05 11:07:40;;;;;;;25.03;24.13;;;20.90;74.30;;;;;;5050985;28;20822;-60
2024/04/05 11:10:14;;;;;;;24.70;23.80;;;20.90;74.30;;;;;;5050390;28;20795;-60
2024/04/05 11:12:40;;;;;;;25.07;24.17;;;20.90;74.30;;;;;;5058922;28;20838;-60
2024/04/05 11:15:08;;;;;;;25.20;24.30;;;20.90;74.30;;;;;;5060516;28;20446;-60
2024/04/05 11:17:34;;;;;;;26.27;25.27;;;20.90;74.20;;;;;;5062495;28;20201;-60
2024/04/05 11:20:11;;;;;;;25.97;24.97;;;20.90;74.20;;;;;;5061288;28;20467;-60
2024/04/05 11:22:37;;;;;;;26.33;25.33;;;20.90;74.20;;;;;;5050647;28;20221;-60
2024/04/05 11:25:04;;;;;;;26.07;25.07;;;20.90;74.10;;;;;;5050748;28;20803;-60
2024/04/05 11:27:30;;;;;;;25.33;24.43;;;20.80;74.10;;;;;;5059051;28;20447;-61
2024/04/05 11:29:57;;;;;;;25.13;24.13;;;20.90;74.10;;;;;;5060628;28;20818;-60
2024/04/05 11:32:27;;;;;;;24.20;23.30;;;20.90;74.10;;;;;;5065765;28;20221;-61
2024/04/05 11:34:54;;;;;;;24.43;23.53;;;20.90;74.10;;;;;;5065807;28;20446;-59
2024/04/05 11:37:21;;;;;;;24.60;23.70;;;20.80;73.90;;;;;;5062578;28;20440;-60
2024/04/05 11:39:47;;;;;;;25.23;24.23;;;20.80;73.90;;;;;;5061940;28;20449;-60
2024/04/05 11:42:13;;;;;;;25.13;24.13;;;20.90;74.00;;;;;;5064478;28;20440;-61
2024/04/05 11:44:40;;;;;;;25.57;24.47;;;20.90;73.90;;;;;;5065630;28;20945;-59
2024/04/05 11:47:06;;;;;;;25.57;24.53;;;20.80;73.80;;;;;;5064109;28;20247;-61
2024/04/05 11:49:33;;;;;;;25.30;24.30;;;20.90;73.90;;;;;;5061847;28;20471;-60
2024/04/05 11:51:59;;;;;;;24.80;23.80;;;20.90;73.90;;;;;;5062092;28;20210;-61
2024/04/05 11:54:27;;;;;;;25.33;24.33;;;20.90;73.90;;;;;;5065433;28;21073;-61
2024/04/05 11:56:53;;;;;;;25.23;24.23;;;20.80;73.70;;;;;;5065425;28;20822;-59
2024/04/05 11:59:21;;;;;;;24.13;23.23;;;20.80;73.60;;;;;;5061807;28;20436;-59
2024/04/05 12:01:46;;;;;;;24.93;23.90;;;20.80;73.70;;;;;;5062002;28;20206;-61
2024/04/05 12:04:13;;;;;;;24.03;23.13;;;20.80;73.60;;;;;;5063805;28;20459;-61
2024/04/05 12:06:39;;;;;;;25.20;24.20;;;20.80;73.60;;;;;;5065321;28;20208;-60
2024/04/05 12:09:06;;;;;;;24.93;24.00;;;20.80;73.50;;;;;;5064012;28;20443;-61
2024/04/05 12:11:36;;;;;;;24.90;23.90;;;20.80;73.40;;;;;;5061399;28;20284;-59
2024/04/05 12:14:01;;;;;;;25.07;24.07;;;20.80;73.40;;;;;;5062066;28;20487;-58
2024/04/05 12:16:28;;;;;;;25.50;24.50;;;20.80;73.40;;;;;;5065095;28;20440;-59
2024/04/05 12:18:54;;;;;;;25.27;24.27;;;20.90;73.50;;;;;;5064950;28;20205;-61
2024/04/05 12:21:21;;;;;;;25.50;24.50;;;20.90;73.50;;;;;;5061342;28;20532;-60
2024/04/05 12:23:46;;;;;;;25.60;24.60;;;20.90;73.50;;;;;;5061459;28;20225;-61
2024/04/05 12:26:14;;;;;;;25.47;24.50;;;20.90;73.50;;;;;;5063287;28;20440;-61